Hingham, Wisconsin
Current Conditions -  °F | °C
As of 9:53 AM on Friday 24 Oct 2014 (Local Time) from KSBM Reporting Station
Overcast Overcast  
Wind Chill: 50°   Ceiling: 700
Heat Index: 50°   Visibility: 10mi
Dew Point: 47°   Wind: 6mph
Humidity: 89%   Direction: 260°W
Pressure: 30.04"   Gusts: NA
Location:  43.64°N, 87.91°W
Report Text: KSBM 241453Z AUTO 26005KT 10SM OVC007 10/08 A3004 RMK AO2 SLP175 T01000083 51004
Loading
Personal Weather Stations






























Interactive Weather Map
Tropical Storm Tracking
New forecast layout! Learn more

10-Day Weather Forecast

Advertisements
Track Severe Weather on mobile